Flight Track Log - Related Links

Times and Time Zones

All times are in EST time to prevent confusion due to time zone crossing. See the SKW4540 flight status page for this flight to view local times or setup timezone preferences in your user account.

Time Position Orientation Groundspeed Altitude Reporting Facility
EST Latitude Longitude Course Direction KTS MPH feet Rate Location/Type
Mon 07:35:02 PM 40.8906 -111.9847 351° North 205 236 8,800  Level Salt Lake Center
Mon 07:35:10 PM 40.8961 -111.9858 351° North 218 251 9,200 2,361 Climbing Salt Lake Center
Mon 07:36:03 PM 40.9558 -111.9942 354° North 231 266 11,200 2,243 Climbing Salt Lake Center
Mon 07:37:05 PM 41.0331 -112.0075 353° North 274 315 13,500 2,390 Climbing Salt Lake Center
Mon 07:38:06 PM 41.1072 -111.9778 17° North 298 343 16,100 2,293 Climbing Salt Lake Center
Mon 07:39:08 PM 41.1669 -111.8942 46° Northeast 306 352 18,200 1,951 Climbing Salt Lake Center
Mon 07:40:09 PM 41.2353 -111.8186 40° Northeast 319 367 20,100 1,756 Climbing Salt Lake Center
Mon 07:41:11 PM 41.3136 -111.7617 29° Northeast 320 368 21,800 1,548 Climbing Salt Lake Center
Mon 07:42:13 PM 41.3956 -111.7067 27° Northeast 329 379 23,300 1,317 Climbing Salt Lake Center
Mon 07:43:14 PM 41.4836 -111.6725 16° North 330 380 24,500 1,317 Climbing Salt Lake Center
Mon 07:44:16 PM 41.5736 -111.6364 17° North 337 388 26,000 1,122 Climbing Salt Lake Center
Mon 07:45:17 PM 41.6642 -111.5997 17° North 339 390 26,800 927 Climbing Salt Lake Center
Mon 07:46:19 PM 41.7758 -111.5547 17° North 348 400 27,900 968 Climbing Salt Lake Center
Mon 07:47:21 PM 41.8719 -111.5303 11° North 351 404 28,800 829 Climbing Salt Lake Center
Mon 07:48:22 PM 41.9689 -111.5094 North 352 405 29,600 732 Climbing Salt Lake Center
Mon 07:49:24 PM 42.0658 -111.4875 10° North 353 406 30,300 732 Climbing Salt Lake Center
Mon 07:50:25 PM 42.1639 -111.4642 10° North 357 411 31,100 732 Climbing Salt Lake Center
Mon 07:51:27 PM 42.2619 -111.4422 North 358 412 31,800 435 Climbing Salt Lake Center
Mon 07:52:29 PM 42.3567 -111.4658 350° North 346 398 32,000 98 Climbing Salt Lake Center
Mon 07:53:30 PM 42.4492 -111.5147 339° North 357 411 32,000  Level Salt Lake Center
Mon 07:54:32 PM 42.5650 -111.5756 339° North 372 428 32,000  Level Salt Lake Center
Mon 07:55:33 PM 42.6642 -111.6278 339° North 380 437 32,000  Level Salt Lake Center
Mon 07:56:35 PM 42.7569 -111.6753 339° North 383 441 32,000  Level Salt Lake Center
Mon 07:57:36 PM 42.8664 -111.7344 338° Northwest 379 436 32,000  Level Salt Lake Center
Mon 07:58:38 PM 42.9617 -111.7850 339° North 383 441 32,000  Level Salt Lake Center
Mon 07:59:39 PM 43.0728 -111.8436 339° North 382 440 32,000  Level Salt Lake Center
Mon 08:00:41 PM 43.1681 -111.8969 338° Northwest 386 444 32,000  Level Salt Lake Center
Mon 08:01:43 PM 43.2633 -111.9486 338° Northwest 384 442 32,000  Level Salt Lake Center
Mon 08:03:46 PM 43.4694 -112.0628 338° Northwest 386 444 32,000  Level Salt Lake Center
Mon 08:04:47 PM 43.5789 -112.1222 339° North 381 438 32,000  Level Salt Lake Center
Mon 08:05:49 PM 43.6733 -112.1736 339° North 380 437 32,000  Level Salt Lake Center
Mon 08:06:50 PM 43.7839 -112.2358 338° Northwest 382 440 32,000  Level Salt Lake Center
Mon 08:07:52 PM 43.8781 -112.2881 338° Northwest 380 437 32,000  Level Salt Lake Center
Mon 08:08:54 PM 43.9717 -112.3394 338° Northwest 378 435 32,000  Level Salt Lake Center
Mon 08:09:56 PM 44.0808 -112.4014 338° Northwest 377 434 32,000  Level Salt Lake Center
Mon 08:10:57 PM 44.1744 -112.4553 338° Northwest 379 436 32,000  Level Salt Lake Center
Mon 08:11:58 PM 44.2833 -112.5169 338° Northwest 378 435 32,000  Level Salt Lake Center
Mon 08:13:00 PM 44.3772 -112.5700 338° Northwest 380 437 32,000  Level Salt Lake Center
Mon 08:14:02 PM 44.4719 -112.6242 338° Northwest 383 441 32,000  Level Salt Lake Center
Mon 08:16:05 PM 44.6750 -112.7408 338° Northwest 378 435 32,000  Level Salt Lake Center
Mon 08:17:07 PM 44.7850 -112.8044 338° Northwest 382 440 32,000  Level Salt Lake Center
Mon 08:18:09 PM 44.8808 -112.8597 338° Northwest 386 444 32,000  Level Salt Lake Center
Mon 08:19:10 PM 44.9761 -112.9158 337° Northwest 386 444 32,000  Level Salt Lake Center
Mon 08:20:12 PM 45.0889 -112.9817 338° Northwest 391 450 32,000  Level Salt Lake Center
Mon 08:21:14 PM 45.1844 -113.0367 338° Northwest 389 448 32,000  Level Salt Lake Center
Mon 08:22:15 PM 45.2961 -113.1022 338° Northwest 389 448 32,000  Level Salt Lake Center
Mon 08:23:17 PM 45.3978 -113.1619 338° Northwest 386 444 32,000  Level Salt Lake Center
Mon 08:24:19 PM 45.4986 -113.2219 337° Northwest 385 443 32,000  Level Salt Lake Center
Mon 08:25:21 PM 45.5981 -113.2831 337° Northwest 383 441 32,000  Level Salt Lake Center
Mon 08:26:22 PM 45.7006 -113.3433 338° Northwest 390 449 32,000  Level Salt Lake Center
Mon 08:27:24 PM 45.8022 -113.4028 338° Northwest 387 445 32,000 -1,452 Level Salt Lake Center
Mon 08:28:26 PM 45.9047 -113.4672 336° Northwest 392 451 29,000 -2,976 Descending Salt Lake Center
Mon 08:29:27 PM 46.0114 -113.5294 338° Northwest 403 464 25,900 -3,122 Descending Salt Lake Center
Mon 08:30:29 PM 46.1167 -113.5925 337° Northwest 378 435 22,600 -3,000 Descending Salt Lake Center
Mon 08:31:31 PM 46.2089 -113.6481 337° Northwest 367 422 19,700 -2,829 Descending Salt Lake Center
Mon 08:32:32 PM 46.2989 -113.7044 337° Northwest 356 410 16,800 -3,024 Descending Salt Lake Center
Mon 08:33:34 PM 46.3806 -113.7836 326° Northwest 329 379 13,500 -3,048 Descending Salt Lake Center
Mon 08:34:36 PM 46.4514 -113.8472 328° Northwest 304 350 10,500 -1,951 Descending Salt Lake Center
Mon 08:35:37 PM 46.5231 -113.9136 327° Northwest 282 325 9,500 -927 Descending Salt Lake Center
Mon 08:36:39 PM 46.5803 -113.9678 327° Northwest 250 288 8,600 -435 Descending Salt Lake Center
Mon 08:37:41 PM 46.6314 -114.0164 327° Northwest 220 253 8,600 -195 Level Salt Lake Center
Mon 08:38:42 PM 46.6881 -114.0325 349° North 199 229 8,200 -244 Descending Salt Lake Center
Mon 08:39:44 PM 46.7431 -114.0442 352° North 197 227 8,100 -629 Descending Salt Lake Center
Mon 08:40:46 PM 46.7936 -114.0494 356° North 185 213 6,900 -1,171 Descending Salt Lake Center
Mon 08:41:47 PM 46.8453 -114.0356 10° North 180 207 5,700 -1,415 Descending Salt Lake Center
Mon 08:42:49 PM 46.8875 -114.0431 353° North 170 196 4,000 -1,220 Descending Salt Lake Center
Mon 08:43:50 PM 46.9122 -114.0853 311° West 153 176 3,200 -787 Descending Salt Lake Center

Login

Don't have an account? Register now (free) for customized features, flight alerts, and more!